Time;durP1;ratioP1;P1;durP2;ratioP2;P2;SDS_P1;SDS_P2;PMS_P1;PMS_P2;Temp;Humidity;BMP_temperature;BMP_pressure;BME280_temperature;BME280_humidity;BME280_pressure;Samples;Min_cycle;Max_cycle;Signal;HPM_P1;HPM_P2
2021/05/29 00:02:09;;;;;;;2.90;2.70;;;12.60;27.10;;;;;;5094769;28;20981;-72
2021/05/29 00:04:35;;;;;;;3.90;3.60;;;12.60;26.90;;;;;;5094478;28;20226;-72
2021/05/29 00:07:01;;;;;;;3.53;3.23;;;12.60;26.90;;;;;;5094595;28;20842;-71
2021/05/29 00:09:26;;;;;;;3.60;3.30;;;12.60;27.00;;;;;;5094098;28;20201;-72
2021/05/29 00:11:52;;;;;;;3.10;2.80;;;12.60;27.00;;;;;;5075964;28;20435;-72
2021/05/29 00:14:17;;;;;;;2.63;2.43;;;12.60;27.10;;;;;;5094487;28;20540;-72
2021/05/29 00:16:43;;;;;;;4.60;3.50;;;12.60;27.20;;;;;;5094030;28;20208;-72
2021/05/29 00:19:08;;;;;;;4.03;3.00;;;12.60;26.70;;;;;;5094566;28;20179;-72
2021/05/29 00:21:34;;;;;;;3.90;3.07;;;12.50;26.90;;;;;;5094395;28;20201;-72
2021/05/29 00:24:00;;;;;;;3.60;3.30;;;12.40;27.10;;;;;;5094161;28;20205;-72
2021/05/29 00:26:25;;;;;;;2.53;2.33;;;12.40;27.40;;;;;;5094285;28;20288;-72
2021/05/29 00:28:51;;;;;;;5.63;3.03;;;12.40;27.60;;;;;;5093829;28;20211;-72
2021/05/29 00:31:19;;;;;;;3.30;3.00;;;12.30;27.50;;;;;;5094255;28;20635;-71
2021/05/29 00:33:44;;;;;;;3.10;2.90;;;12.30;27.40;;;;;;5093883;28;20407;-72
2021/05/29 00:36:10;;;;;;;2.90;2.60;;;12.30;27.50;;;;;;5093755;28;20438;-72
2021/05/29 00:38:35;;;;;;;4.80;3.30;;;12.20;27.30;;;;;;5093689;28;20268;-72
2021/05/29 00:41:07;;;;;;;4.83;3.37;;;12.20;27.30;;;;;;5093834;28;20184;-71
2021/05/29 00:43:36;;;;;;;3.23;3.03;;;12.20;27.10;;;;;;5094016;28;20191;-72
2021/05/29 00:46:03;;;;;;;3.70;3.40;;;12.10;27.10;;;;;;5075630;28;20854;-72
2021/05/29 00:48:29;;;;;;;2.57;2.40;;;12.10;27.30;;;;;;5093753;28;20820;-72
2021/05/29 00:51:00;;;;;;;4.30;3.17;;;12.00;27.40;;;;;;5093503;28;20411;-72
2021/05/29 00:53:28;;;;;;;3.03;2.83;;;12.00;27.40;;;;;;5092832;28;20176;-72
2021/05/29 00:55:55;;;;;;;4.23;3.90;;;11.90;28.00;;;;;;5093274;28;20435;-72
2021/05/29 00:58:21;;;;;;;3.43;3.13;;;11.90;28.10;;;;;;5093753;28;20415;-72
2021/05/29 01:00:48;;;;;;;6.57;3.23;;;11.90;28.10;;;;;;5093479;28;20418;-72
2021/05/29 01:03:14;;;;;;;3.63;3.20;;;12.00;28.50;;;;;;5093305;28;20800;-72
2021/05/29 01:05:40;;;;;;;2.17;2.00;;;;;;;;;;5093033;28;20431;-72
2021/05/29 01:08:06;;;;;;;3.13;2.83;;;;;;;;;;5093092;28;20177;-72
2021/05/29 01:10:32;;;;;;;3.40;3.10;;;;;;;;;;5092960;28;20771;-72
2021/05/29 01:13:00;;;;;;;5.80;3.03;;;;;;;;;;5093138;28;20505;-72
2021/05/29 01:15:34;;;;;;;3.13;2.83;;;;;;;;;;5092865;28;20474;-72
2021/05/29 01:18:01;;;;;;;3.33;3.10;;;;;;;;;;5092961;28;20536;-72
2021/05/29 01:20:27;;;;;;;2.83;2.63;;;;;;;;;;5092671;28;20403;-72
2021/05/29 01:22:55;;;;;;;5.77;2.30;;;;;;;;;;5093119;28;20936;-72
2021/05/29 01:25:23;;;;;;;2.50;2.30;;;;;;;;;;5092808;28;20441;-72
2021/05/29 01:27:59;;;;;;;2.93;2.67;;;;;;;;;;5092920;28;20556;-72
2021/05/29 01:30:25;;;;;;;7.10;3.73;;;;;;;;;;5092687;28;20464;-72
2021/05/29 01:32:51;;;;;;;2.40;2.20;;;;;;;;;;5092807;28;20772;-71
2021/05/29 01:35:17;;;;;;;3.13;2.83;;;;;;;;;;5092920;28;20449;-72
2021/05/29 01:37:43;;;;;;;2.93;2.63;;;;;;;;;;5092812;28;20461;-71
2021/05/29 01:40:10;;;;;;;3.27;2.97;;;;;;;;;;5092355;28;20411;-71
2021/05/29 01:42:37;;;;;;;2.60;2.37;;;;;;;;;;5092771;28;20851;-72
2021/05/29 01:45:04;;;;;;;6.20;2.90;;;;;;;;;;5092545;28;20467;-72
2021/05/29 01:47:33;;;;;;;3.50;2.57;;;;;;;;;;5092775;28;20776;-69
2021/05/29 01:49:59;;;;;;;4.00;3.10;;;;;;;;;;5074119;28;20690;-72
2021/05/29 01:52:45;;;;;;;2.73;2.53;;;;;;;;;;5092510;28;20411;-72
2021/05/29 01:55:11;;;;;;;3.23;2.93;;;;;;;;;;5091969;28;20419;-71
2021/05/29 01:57:37;;;;;;;4.50;3.30;;;;;;;;;;5074160;28;20412;-72
2021/05/29 02:00:04;;;;;;;2.60;2.40;;;;;;;;;;5092186;28;20418;-71
2021/05/29 02:02:30;;;;;;;3.23;2.90;;;;;;;;;;5092478;28;20873;-72
2021/05/29 02:04:56;;;;;;;3.13;2.83;;;;;;;;;;5073049;28;20412;-69
2021/05/29 02:07:23;;;;;;;3.60;3.23;;;;;;;;;;5092228;28;20493;-72
2021/05/29 02:09:50;;;;;;;3.00;2.60;;;;;;;;;;5091816;28;20473;-72
2021/05/29 02:12:15;;;;;;;3.40;2.13;;;11.90;29.00;;;;;;5092072;28;20408;-70
2021/05/29 02:14:42;;;;;;;3.93;3.17;;;11.70;30.90;;;;;;5092198;28;20951;-71
2021/05/29 02:17:08;;;;;;;5.10;3.10;;;11.70;30.70;;;;;;5091931;28;20217;-71
2021/05/29 02:19:34;;;;;;;3.43;2.73;;;11.70;30.40;;;;;;5091778;28;20423;-71
2021/05/29 02:21:59;;;;;;;3.60;3.30;;;11.70;30.70;;;;;;5073813;28;20567;-72
2021/05/29 02:24:31;;;;;;;2.70;2.50;;;11.70;30.70;;;;;;5088458;27;20948;-69
2021/05/29 02:26:57;;;;;;;4.03;3.07;;;11.70;30.70;;;;;;5088222;28;20429;-69
2021/05/29 02:29:22;;;;;;;3.80;2.80;;;11.70;30.50;;;;;;5088035;28;20176;-69
2021/05/29 02:31:48;;;;;;;3.33;2.73;;;11.70;30.40;;;;;;5087040;28;20177;-69
2021/05/29 02:34:13;;;;;;;2.67;2.47;;;11.70;30.80;;;;;;5088287;28;20250;-69
2021/05/29 02:36:39;;;;;;;2.67;2.47;;;11.70;31.70;;;;;;5088699;28;20681;-68
2021/05/29 02:39:05;;;;;;;3.00;2.80;;;11.70;31.40;;;;;;5087834;28;20176;-68
2021/05/29 02:41:30;;;;;;;6.83;2.90;;;11.70;31.40;;;;;;5088074;28;20181;-68
2021/05/29 02:43:56;;;;;;;3.37;2.63;;;11.70;31.70;;;;;;5087963;28;20245;-68
2021/05/29 02:46:21;;;;;;;3.83;3.43;;;11.70;31.60;;;;;;5088081;28;20227;-69
2021/05/29 02:48:47;;;;;;;3.30;3.00;;;11.60;31.80;;;;;;5087827;28;20179;-70
2021/05/29 02:51:12;;;;;;;4.43;3.87;;;11.50;31.80;;;;;;5087985;28;20188;-68
2021/05/29 02:53:38;;;;;;;5.43;3.23;;;11.50;31.90;;;;;;5087767;28;20188;-68
2021/05/29 02:56:04;;;;;;;5.30;2.70;;;11.50;32.30;;;;;;5087668;28;20207;-69
2021/05/29 02:58:29;;;;;;;3.50;3.20;;;11.50;32.30;;;;;;5087727;28;20220;-68
2021/05/29 03:00:55;;;;;;;3.73;3.37;;;;;;;;;;5087468;28;20235;-69
2021/05/29 03:03:21;;;;;;;2.63;2.43;;;;;;;;;;5086255;28;20212;-70
2021/05/29 03:05:49;;;;;;;3.23;2.67;;;;;;;;;;5087494;28;20535;-69
2021/05/29 03:08:16;;;;;;;3.43;2.60;;;;;;;;;;5087619;28;20948;-68
2021/05/29 03:10:43;;;;;;;2.73;2.53;;;11.40;32.20;;;;;;5087164;28;20746;-68
2021/05/29 03:13:08;;;;;;;2.63;1.87;;;11.40;33.40;;;;;;5087784;28;20819;-68
2021/05/29 03:15:35;;;;;;;3.20;2.73;;;11.30;34.70;;;;;;5087482;28;20467;-68
2021/05/29 03:18:02;;;;;;;2.53;2.27;;;11.30;34.20;;;;;;5087476;28;20608;-68
2021/05/29 03:20:29;;;;;;;4.57;2.73;;;11.30;34.20;;;;;;5087121;28;20455;-70
2021/05/29 03:22:54;;;;;;;12.67;3.00;;;11.30;34.20;;;;;;5087212;28;20478;-68
2021/05/29 03:25:20;;;;;;;3.20;2.90;;;11.20;34.10;;;;;;5087162;28;20417;-69
2021/05/29 03:27:49;;;;;;;13.57;4.73;;;11.10;34.00;;;;;;5087257;28;20183;-69
2021/05/29 03:30:17;;;;;;;4.40;4.00;;;11.10;34.50;;;;;;5087495;28;20181;-68
2021/05/29 03:32:42;;;;;;;8.60;4.97;;;11.00;34.70;;;;;;5087438;28;20419;-68
2021/05/29 03:35:09;;;;;;;5.47;4.73;;;11.00;34.70;;;;;;5078198;28;20519;-70
2021/05/29 03:37:35;;;;;;;6.83;4.57;;;11.00;34.80;;;;;;5073516;28;20174;-68
2021/05/29 03:40:01;;;;;;;4.83;4.37;;;11.00;35.00;;;;;;5073163;28;20423;-68
2021/05/29 03:42:27;;;;;;;4.27;3.90;;;11.10;34.60;;;;;;5073494;28;20463;-68
2021/05/29 03:44:52;;;;;;;5.30;4.30;;;11.10;34.50;;;;;;5072318;28;20206;-68
2021/05/29 03:47:18;;;;;;;4.67;4.27;;;11.20;34.40;;;;;;5073618;28;20679;-69
2021/05/29 03:49:44;;;;;;;4.07;3.37;;;11.30;34.60;;;;;;5073057;28;20185;-70
2021/05/29 03:52:10;;;;;;;5.90;4.77;;;11.30;34.90;;;;;;5073280;28;20172;-68
2021/05/29 03:54:36;;;;;;;3.40;3.20;;;11.40;35.00;;;;;;5073185;28;20172;-69
2021/05/29 03:57:01;;;;;;;3.70;3.40;;;11.40;34.50;;;;;;5073147;28;20996;-68
2021/05/29 03:59:27;;;;;;;3.67;3.40;;;11.40;34.10;;;;;;5073077;28;20192;-68
2021/05/29 04:01:53;;;;;;;3.77;3.37;;;11.40;33.70;;;;;;5073176;28;20637;-68
2021/05/29 04:04:18;;;;;;;3.67;3.20;;;11.40;33.90;;;;;;5073111;28;20463;-68
2021/05/29 04:06:44;;;;;;;2.80;2.60;;;11.40;33.80;;;;;;5073037;28;20276;-68
2021/05/29 04:09:10;;;;;;;2.90;2.67;;;11.50;33.90;;;;;;5073347;28;20208;-69
2021/05/29 04:11:36;;;;;;;5.80;3.50;;;11.50;34.00;;;;;;5072808;28;20406;-69
2021/05/29 04:14:02;;;;;;;3.50;2.83;;;11.50;33.90;;;;;;5072677;28;20190;-68
2021/05/29 04:16:28;;;;;;;3.40;2.83;;;11.60;34.10;;;;;;5073006;28;20241;-69
2021/05/29 04:18:53;;;;;;;3.00;2.80;;;11.60;33.90;;;;;;5072451;28;20460;-68
2021/05/29 04:21:19;;;;;;;5.00;3.33;;;11.60;33.70;;;;;;5061114;28;20622;-68
2021/05/29 04:23:45;;;;;;;3.27;2.97;;;11.70;33.50;;;;;;5052073;28;20300;-68
2021/05/29 04:26:11;;;;;;;3.27;2.67;;;11.70;33.60;;;;;;5052566;28;20541;-68
2021/05/29 04:28:37;;;;;;;4.43;3.33;;;11.70;33.40;;;;;;5052565;28;20175;-69
2021/05/29 04:31:03;;;;;;;3.67;2.90;;;11.70;32.90;;;;;;5052391;28;20182;-69
2021/05/29 04:33:29;;;;;;;5.33;3.03;;;11.80;33.40;;;;;;5052547;28;20912;-70
2021/05/29 04:35:54;;;;;;;3.90;2.93;;;11.80;32.50;;;;;;5051875;28;20471;-68
2021/05/29 04:38:20;;;;;;;4.10;3.70;;;11.70;32.50;;;;;;5051122;28;20186;-69
2021/05/29 04:40:45;;;;;;;4.10;3.07;;;11.70;32.40;;;;;;5052053;28;20188;-69
2021/05/29 04:43:11;;;;;;;8.03;3.87;;;11.70;32.40;;;;;;5052293;28;20705;-69
2021/05/29 04:45:37;;;;;;;3.67;3.37;;;11.50;32.70;;;;;;5051679;28;20214;-68
2021/05/29 04:48:03;;;;;;;3.40;3.10;;;11.40;34.00;;;;;;5051874;28;20178;-69
2021/05/29 04:50:28;;;;;;;4.40;4.00;;;11.40;33.40;;;;;;5051859;28;20173;-68
2021/05/29 04:52:54;;;;;;;7.17;3.50;;;11.40;33.70;;;;;;5052511;28;20431;-69
2021/05/29 04:55:21;;;;;;;3.90;3.60;;;11.60;33.40;;;;;;5052094;28;20216;-69
2021/05/29 04:57:47;;;;;;;4.07;3.33;;;11.70;33.50;;;;;;5051930;28;20178;-69
2021/05/29 05:00:16;;;;;;;3.60;3.30;;;11.80;33.60;;;;;;5051782;28;20466;-69
2021/05/29 05:02:41;;;;;;;3.37;2.90;;;12.00;32.10;;;;;;5051727;28;20244;-72
2021/05/29 05:05:08;;;;;;;7.70;3.87;;;12.00;32.70;;;;;;5051819;28;20419;-70
2021/05/29 05:07:34;;;;;;;3.63;3.23;;;12.20;32.30;;;;;;5051952;28;20263;-71
2021/05/29 05:09:59;;;;;;;3.80;3.50;;;12.40;32.50;;;;;;5051763;28;20835;-71
2021/05/29 05:12:25;;;;;;;3.43;3.10;;;12.50;32.30;;;;;;5051987;28;20415;-69
2021/05/29 05:14:51;;;;;;;4.80;3.47;;;12.70;32.00;;;;;;5050628;28;20205;-68
2021/05/29 05:17:16;;;;;;;5.13;2.87;;;12.80;31.30;;;;;;5051561;28;20190;-68
2021/05/29 05:19:42;;;;;;;4.00;3.17;;;13.00;31.30;;;;;;5051435;28;20171;-68
2021/05/29 05:22:07;;;;;;;3.17;2.97;;;13.10;30.10;;;;;;5051583;28;20235;-68
2021/05/29 05:24:33;;;;;;;5.97;3.87;;;13.20;29.80;;;;;;5051767;28;20252;-68
2021/05/29 05:26:58;;;;;;;3.37;3.10;;;13.50;29.20;;;;;;5051620;28;20223;-68
2021/05/29 05:29:24;;;;;;;4.30;3.93;;;13.70;28.80;;;;;;5049885;28;20654;-69
2021/05/29 05:31:50;;;;;;;3.90;3.60;;;13.90;28.10;;;;;;5051541;28;20178;-68
2021/05/29 05:34:16;;;;;;;5.80;4.97;;;14.10;27.30;;;;;;5051447;28;20179;-68
2021/05/29 05:36:42;;;;;;;4.53;4.17;;;14.20;26.60;;;;;;5051017;28;20200;-68
2021/05/29 05:39:10;;;;;;;3.90;3.60;;;14.80;26.90;;;;;;5051264;28;20185;-69
2021/05/29 05:41:37;;;;;;;4.13;3.93;;;16.00;23.80;;;;;;5051175;28;20502;-68
2021/05/29 05:44:03;;;;;;;4.33;4.10;;;17.30;20.60;;;;;;5051143;28;20472;-69
2021/05/29 05:46:29;;;;;;;6.80;6.30;;;18.20;19.70;;;;;;5051010;28;20455;-69
2021/05/29 05:48:55;;;;;;;15.83;4.77;;;18.70;17.60;;;;;;5050876;28;20405;-69
2021/05/29 05:51:21;;;;;;;5.40;5.00;;;19.30;16.10;;;;;;5051060;28;20652;-70
2021/05/29 05:53:46;;;;;;;6.00;5.70;;;19.90;16.50;;;;;;5050987;28;20188;-70
2021/05/29 05:56:14;;;;;;;6.30;5.90;;;20.30;15.30;;;;;;5050788;28;20464;-69
2021/05/29 05:58:40;;;;;;;6.67;6.17;;;20.70;14.20;;;;;;5050942;28;20175;-69
2021/05/29 06:01:06;;;;;;;6.77;6.37;;;21.30;13.90;;;;;;5050823;28;20986;-69
2021/05/29 06:03:35;;;;;;;7.30;6.80;;;22.50;12.70;;;;;;5050664;28;20253;-70
2021/05/29 06:06:00;;;;;;;7.30;6.90;;;23.50;15.10;;;;;;5050944;28;20498;-70
2021/05/29 06:08:26;;;;;;;6.60;6.30;;;24.00;10.30;;;;;;5050936;28;20833;-70
2021/05/29 06:10:52;;;;;;;6.87;6.43;;;24.00;9.10;;;;;;5063624;28;20655;-70
2021/05/29 06:19:10;;;;;;;7.20;6.90;;;25.80;6.80;;;;;;5054835;28;21016;-70
2021/05/29 06:21:37;;;;;;;7.70;7.30;;;26.60;6.70;;;;;;5069024;28;20428;-69
2021/05/29 06:24:04;;;;;;;8.10;7.70;;;26.50;5.60;;;;;;5055217;28;20455;-69
2021/05/29 06:26:30;;;;;;;9.40;8.60;;;26.90;5.70;;;;;;5063789;28;20435;-72
2021/05/29 06:28:56;;;;;;;8.37;7.83;;;27.50;4.80;;;;;;5068718;28;20746;-73
2021/05/29 06:31:21;;;;;;;9.17;8.67;;;28.10;3.30;;;;;;5063449;28;20178;-70
2021/05/29 06:33:47;;;;;;;9.17;8.60;;;28.30;3.40;;;;;;5070642;28;20177;-70
2021/05/29 06:36:12;;;;;;;9.13;8.73;;;27.70;3.10;;;;;;5057825;28;20194;-71
2021/05/29 06:38:38;;;;;;;10.33;9.83;;;27.50;3.00;;;;;;5055780;28;20182;-70
2021/05/29 06:41:04;;;;;;;11.43;10.83;;;;;;;;;;5065226;28;20186;-70
2021/05/29 06:43:30;;;;;;;10.97;10.57;;;26.10;4.70;;;;;;5068033;28;20740;-72
2021/05/29 06:45:56;;;;;;;11.10;10.53;;;;;;;;;;5067449;28;20520;-71
2021/05/29 06:48:23;;;;;;;11.40;10.90;;;;;;;;;;5063250;28;20195;-72
2021/05/29 06:50:56;;;;;;;11.67;11.17;;;21.50;10.20;;;;;;5047277;28;20421;-71
2021/05/29 06:53:32;;;;;;;11.30;10.80;;;21.40;10.70;;;;;;5061502;28;20420;-70
2021/05/29 06:58:39;;;;;;;11.50;11.00;;;21.60;10.40;;;;;;5055981;28;20911;-70
2021/05/29 06:58:52;;;;;;;11.00;10.50;;;22.90;10.20;;;;;;5050359;28;20435;-71
2021/05/29 07:01:23;;;;;;;10.47;10.07;;;24.40;7.80;;;;;;5062179;28;20436;-71
2021/05/29 07:03:49;;;;;;;11.43;10.93;;;25.30;6.30;;;;;;5046774;28;20699;-71
2021/05/29 07:06:15;;;;;;;11.70;11.20;;;25.60;5.80;;;;;;5051394;28;20957;-71
2021/05/29 07:08:41;;;;;;;11.83;11.33;;;25.40;5.60;;;;;;5047627;28;20424;-70
2021/05/29 07:11:07;;;;;;;11.60;11.10;;;25.90;5.20;;;;;;5065963;28;20424;-71
2021/05/29 07:13:33;;;;;;;11.10;10.70;;;26.90;4.00;;;;;;5064683;28;20443;-71
2021/05/29 07:16:00;;;;;;;11.50;11.00;;;27.20;2.80;;;;;;5068281;28;20214;-71
2021/05/29 07:18:30;;;;;;;12.33;11.83;;;27.60;3.00;;;;;;5073447;28;20466;-72
2021/05/29 07:20:56;;;;;;;12.60;12.10;;;27.80;3.20;;;;;;5073097;28;20475;-72
2021/05/29 07:23:22;;;;;;;13.50;12.90;;;28.40;1.70;;;;;;5068841;28;20551;-71
2021/05/29 07:25:48;;;;;;;12.87;12.40;;;28.00;1.60;;;;;;5073155;28;20233;-71
2021/05/29 07:28:15;;;;;;;12.60;12.20;;;27.50;2.50;;;;;;5066224;28;20433;-72
2021/05/29 07:30:41;;;;;;;13.23;12.73;;;27.40;2.50;;;;;;5059428;28;20602;-73
2021/05/29 07:33:06;;;;;;;12.93;12.47;;;27.10;2.80;;;;;;5053323;28;20413;-73
2021/05/29 07:35:32;;;;;;;13.00;12.50;;;27.10;2.60;;;;;;5064308;28;20210;-72
2021/05/29 07:37:57;;;;;;;14.27;13.17;;;27.40;1.50;;;;;;5055626;28;20181;-72
2021/05/29 07:40:24;;;;;;;13.03;12.33;;;27.90;1.00;;;;;;5063142;28;20191;-72
2021/05/29 07:42:49;;;;;;;13.73;13.17;;;28.40;1.00;;;;;;5053734;28;20202;-72
2021/05/29 07:45:16;;;;;;;13.43;12.93;;;28.40;1.00;;;;;;5053214;28;20421;-72
2021/05/29 07:47:42;;;;;;;13.17;12.67;;;28.80;1.00;;;;;;5052940;28;20262;-72
2021/05/29 07:50:08;;;;;;;14.07;13.47;;;28.00;1.00;;;;;;5070496;28;20428;-73
2021/05/29 07:52:34;;;;;;;14.23;13.73;;;27.80;1.00;;;;;;5056583;28;20440;-72
2021/05/29 07:55:00;;;;;;;14.40;13.63;;;28.00;1.00;;;;;;5053786;28;20582;-72
2021/05/29 07:57:26;;;;;;;14.30;13.80;;;28.40;1.00;;;;;;5052049;28;20195;-72
2021/05/29 07:59:51;;;;;;;14.30;13.80;;;28.30;1.00;;;;;;5052176;28;20428;-72
2021/05/29 08:02:17;;;;;;;14.57;14.07;;;27.70;1.00;;;;;;5052785;28;20174;-73
2021/05/29 08:04:43;;;;;;;14.17;13.67;;;27.90;1.00;;;;;;5069479;28;20185;-73
2021/05/29 08:07:08;;;;;;;14.50;14.00;;;27.80;1.00;;;;;;5072549;28;20218;-72
2021/05/29 08:09:34;;;;;;;15.10;14.50;;;27.80;1.00;;;;;;5066964;28;20644;-73
2021/05/29 08:11:59;;;;;;;15.37;14.77;;;27.60;1.00;;;;;;5062041;28;20632;-72
2021/05/29 08:14:25;;;;;;;16.03;15.33;;;27.40;1.00;;;;;;5065232;28;20186;-72
2021/05/29 08:16:51;;;;;;;15.47;14.87;;;27.10;1.00;;;;;;5072390;28;20201;-72
2021/05/29 08:19:16;;;;;;;15.63;14.97;;;27.30;1.00;;;;;;5071305;28;20225;-72
2021/05/29 08:21:45;;;;;;;15.70;15.10;;;27.20;1.00;;;;;;5069250;28;20182;-74
2021/05/29 08:24:12;;;;;;;15.73;15.13;;;27.10;1.00;;;;;;5056976;28;20394;-72
2021/05/29 08:26:38;;;;;;;15.20;14.70;;;27.20;1.00;;;;;;5059727;28;20822;-72
2021/05/29 08:29:06;;;;;;;15.63;15.00;;;27.20;1.00;;;;;;5053536;28;20421;-72
2021/05/29 08:31:32;;;;;;;15.53;14.93;;;26.80;1.00;;;;;;5071960;28;20448;-72
2021/05/29 08:33:58;;;;;;;15.67;15.07;;;27.00;1.00;;;;;;5071980;28;20455;-72
2021/05/29 08:36:24;;;;;;;15.47;14.97;;;27.60;1.00;;;;;;5071555;28;20213;-72
2021/05/29 08:38:55;;;;;;;15.83;15.23;;;27.70;1.00;;;;;;5072719;22;20598;-72
2021/05/29 08:41:20;;;;;;;16.40;15.70;;;26.90;1.00;;;;;;5002159;28;20267;-72
2021/05/29 08:43:46;;;;;;;15.80;15.20;;;25.60;1.00;;;;;;5009291;28;20470;-71
2021/05/29 08:46:13;;;;;;;15.60;15.00;;;25.70;1.00;;;;;;5008416;28;20215;-72
2021/05/29 08:48:40;;;;;;;16.70;16.00;;;26.30;1.00;;;;;;5008400;28;20208;-72
2021/05/29 08:51:13;;;;;;;16.40;15.80;;;25.40;2.70;;;;;;5015121;28;20415;-73
2021/05/29 08:53:42;;;;;;;16.73;16.13;;;25.20;1.00;;;;;;4978129;28;20437;-72
2021/05/29 08:56:07;;;;;;;15.37;14.77;;;24.00;1.00;;;;;;4988292;28;20968;-74
2021/05/29 08:58:35;;;;;;;15.63;15.10;;;22.70;1.00;;;;;;4994693;28;20455;-73
2021/05/29 09:01:02;;;;;;;16.33;15.73;;;22.10;1.10;;;;;;4993484;28;20204;-71
2021/05/29 09:04:03;;;;;;;16.60;16.00;;;21.50;1.40;;;;;;4994772;28;20475;-73
2021/05/29 09:06:31;;;;;;;16.53;15.93;;;21.10;2.60;;;;;;4993860;28;20435;-73
2021/05/29 09:09:03;;;;;;;16.30;15.60;;;20.60;3.20;;;;;;5001164;28;20486;-71
2021/05/29 09:11:50;;;;;;;16.47;15.87;;;20.70;4.00;;;;;;5005533;28;20459;-74
2021/05/29 09:14:28;;;;;;;16.10;15.50;;;20.80;3.50;;;;;;4987872;28;20873;-77
2021/05/29 09:17:04;;;;;;;15.87;15.27;;;20.90;4.00;;;;;;4989977;28;20842;-72
2021/05/29 09:19:49;;;;;;;15.30;14.80;;;21.00;3.60;;;;;;4986003;28;20463;-73
2021/05/29 09:22:16;;;;;;;15.60;14.90;;;20.80;3.20;;;;;;4993231;28;20506;-73
2021/05/29 09:25:03;;;;;;;15.80;15.10;;;20.10;3.70;;;;;;4996330;28;20585;-73
2021/05/29 09:27:31;;;;;;;15.60;15.00;;;19.70;4.00;;;;;;4976003;28;20463;-74
2021/05/29 09:30:00;;;;;;;15.63;15.03;;;19.50;4.60;;;;;;4981923;28;20490;-71
2021/05/29 09:32:28;;;;;;;16.30;15.70;;;;;;;;;;4988036;28;20459;-72
2021/05/29 09:34:56;;;;;;;15.17;14.57;;;;;;;;;;4997099;28;20541;-71
2021/05/29 09:37:24;;;;;;;16.90;16.10;;;;;;;;;;4988303;28;20420;-71
2021/05/29 09:39:52;;;;;;;16.20;15.60;;;;;;;;;;4992793;28;20469;-72
2021/05/29 09:42:18;;;;;;;16.07;15.47;;;;;;;;;;4995053;28;20448;-72
2021/05/29 09:44:45;;;;;;;17.67;16.77;;;;;;;;;;4990045;28;20463;-72
2021/05/29 09:47:13;;;;;;;17.20;16.50;;;;;;;;;;4991058;28;20435;-71
2021/05/29 09:49:45;;;;;;;16.57;15.97;;;;;;;;;;5001269;28;20823;-72
2021/05/29 09:52:23;;;;;;;16.50;15.07;;;;;;;;;;4991472;28;20427;-73
2021/05/29 09:54:50;;;;;;;15.97;15.37;;;;;;;;;;4992128;28;20420;-73
2021/05/29 09:57:16;;;;;;;16.47;15.80;;;;;;;;;;4992607;28;20462;-73
2021/05/29 09:59:52;;;;;;;16.27;15.57;;;;;;;;;;4990732;28;20949;-73
2021/05/29 10:02:18;;;;;;;15.80;15.10;;;;;;;;;;4996358;28;20514;-73
2021/05/29 10:04:49;;;;;;;15.97;15.37;;;;;;;;;;4992317;28;20559;-73
2021/05/29 10:07:15;;;;;;;16.30;15.70;;;;;;;;;;4991990;28;20917;-74
2021/05/29 10:09:42;;;;;;;15.60;15.00;;;;;;;;;;4991777;28;20475;-73
2021/05/29 10:12:08;;;;;;;15.73;15.13;;;;;;;;;;5002347;28;20436;-74
2021/05/29 10:14:34;;;;;;;16.17;15.30;;;20.10;16.60;;;;;;4989996;28;20428;-73
2021/05/29 10:17:04;;;;;;;16.33;15.73;;;20.30;15.60;;;;;;5001327;28;20427;-73
2021/05/29 10:19:30;;;;;;;16.00;15.40;;;20.20;17.30;;;;;;5009891;28;20461;-72
2021/05/29 10:21:56;;;;;;;16.07;15.47;;;20.10;28.90;;;;;;5010932;28;20851;-74
2021/05/29 10:24:25;;;;;;;15.70;15.20;;;20.00;32.80;;;;;;4991794;28;20475;-74
2021/05/29 10:26:52;;;;;;;16.70;16.10;;;19.90;34.00;;;;;;4993210;28;20412;-74
2021/05/29 10:29:24;;;;;;;15.97;15.17;;;19.90;35.10;;;;;;4992207;28;20474;-73
2021/05/29 10:31:50;;;;;;;15.63;15.03;;;;;;;;;;5003494;28;20433;-73
2021/05/29 10:34:18;;;;;;;16.70;16.03;;;;;;;;;;5014872;28;20788;-72
2021/05/29 10:36:54;;;;;;;16.67;16.07;;;;;;;;;;5012536;28;20415;-72
2021/05/29 10:39:29;;;;;;;16.43;15.83;;;20.00;42.70;;;;;;4996267;28;20485;-73
2021/05/29 10:42:00;;;;;;;16.97;16.10;;;20.40;3.20;;;;;;4997771;28;20443;-73
2021/05/29 10:44:41;;;;;;;15.77;15.17;;;20.80;3.50;;;;;;4994736;28;20852;-75
2021/05/29 10:47:10;;;;;;;15.80;15.20;;;20.80;2.90;;;;;;5014379;28;20427;-71
2021/05/29 10:49:50;;;;;;;15.70;15.00;;;20.60;3.20;;;;;;5014892;28;20438;-73
2021/05/29 10:52:42;;;;;;;15.93;15.33;;;21.00;8.30;;;;;;5013704;28;20407;-73
2021/05/29 10:55:08;;;;;;;16.77;16.17;;;21.10;6.20;;;;;;5013106;28;20455;-73
2021/05/29 10:57:55;;;;;;;16.83;16.23;;;21.10;3.30;;;;;;5015313;28;20453;-73
2021/05/29 11:00:35;;;;;;;15.93;15.33;;;21.40;2.50;;;;;;5014656;28;20246;-73
2021/05/29 11:03:27;;;;;;;16.30;15.70;;;21.60;3.10;;;;;;5003365;28;20650;-72
2021/05/29 11:05:56;;;;;;;16.63;16.03;;;;;;;;;;4994648;28;20781;-72
2021/05/29 11:08:41;;;;;;;17.20;16.50;;;;;;;;;;5003440;28;20471;-72
2021/05/29 11:11:26;;;;;;;17.50;16.80;;;;;;;;;;5010441;28;20559;-73
2021/05/29 11:14:04;;;;;;;16.50;15.80;;;;;;;;;;5012982;28;20489;-72
2021/05/29 11:16:50;;;;;;;17.43;16.73;;;;;;;;;;5012547;28;20788;-71
2021/05/29 11:19:22;;;;;;;17.03;16.10;;;;;;;;;;4996613;28;20947;-72
2021/05/29 11:22:09;;;;;;;17.30;16.60;;;;;;;;;;5007439;28;20415;-71
2021/05/29 11:24:52;;;;;;;16.80;16.20;;;;;;;;;;4994651;28;20458;-71
2021/05/29 11:27:25;;;;;;;16.90;16.20;;;;;;;;;;4994636;28;20435;-72
2021/05/29 11:29:51;;;;;;;16.10;15.50;;;;;;;;;;4994536;28;20428;-71
2021/05/29 11:32:39;;;;;;;16.33;15.60;;;;;;;;;;4994627;28;20415;-71
2021/05/29 11:35:05;;;;;;;16.83;16.13;;;;;;;;;;5002630;28;20703;-72
2021/05/29 11:37:33;;;;;;;15.70;15.20;;;21.30;39.90;;;;;;4994482;28;20428;-71
2021/05/29 11:39:59;;;;;;;15.40;14.90;;;21.50;13.60;;;;;;4992950;28;20464;-71
2021/05/29 11:42:24;;;;;;;16.60;15.80;;;21.50;12.80;;;;;;4992870;28;20424;-72
2021/05/29 11:44:52;;;;;;;16.70;16.10;;;;;;;;;;4994286;28;20735;-72
2021/05/29 11:47:21;;;;;;;16.50;15.90;;;;;;;;;;4998112;28;20239;-73
2021/05/29 11:49:49;;;;;;;16.23;15.53;;;;;;;;;;5013464;28;20433;-72
2021/05/29 11:52:15;;;;;;;16.50;15.90;;;;;;;;;;5009135;28;20425;-72
2021/05/29 11:54:41;;;;;;;16.13;15.53;;;;;;;;;;4978477;28;20971;-72
2021/05/29 11:57:07;;;;;;;16.20;15.60;;;;;;;;;;4972650;28;20421;-71
2021/05/29 11:59:33;;;;;;;15.93;15.37;;;;;;;;;;4984041;28;20484;-72
2021/05/29 12:01:59;;;;;;;16.70;15.80;;;;;;;;;;5003464;28;20430;-71
2021/05/29 12:04:26;;;;;;;15.83;15.23;;;;;;;;;;4992488;28;20499;-71
2021/05/29 12:06:55;;;;;;;16.80;16.20;;;;;;;;;;4993646;28;20416;-71
2021/05/29 12:09:23;;;;;;;16.50;15.90;;;;;;;;;;4993460;28;20486;-72
2021/05/29 12:11:53;;;;;;;16.77;15.87;;;;;;;;;;4993573;28;20905;-72
2021/05/29 12:14:24;;;;;;;17.37;16.33;;;;;;;;;;4993496;28;20435;-72
2021/05/29 12:16:55;;;;;;;17.23;16.63;;;;;;;;;;4993537;28;20455;-72
2021/05/29 12:19:33;;;;;;;16.87;16.07;;;;;;;;;;4990855;28;20462;-72
2021/05/29 12:22:21;;;;;;;16.10;15.50;;;;;;;;;;4984805;28;20420;-72
2021/05/29 12:24:48;;;;;;;16.37;15.77;;;;;;;;;;4992939;28;20471;-72
2021/05/29 12:27:19;;;;;;;16.30;15.70;;;;;;;;;;4993021;28;20422;-72
2021/05/29 12:29:45;;;;;;;15.87;15.27;;;;;;;;;;4993086;28;20842;-72
2021/05/29 12:32:28;;;;;;;16.00;15.40;;;;;;;;;;4993259;28;20413;-73
2021/05/29 12:34:54;;;;;;;15.80;15.30;;;;;;;;;;4992050;28;20485;-71
2021/05/29 12:37:30;;;;;;;16.43;15.80;;;;;;;;;;4985478;28;20443;-72
2021/05/29 12:40:02;;;;;;;16.63;16.03;;;;;;;;;;4985680;28;20463;-72
2021/05/29 12:42:30;;;;;;;16.27;15.67;;;;;;;;;;4993718;28;20427;-72
2021/05/29 12:44:57;;;;;;;15.30;14.80;;;;;;;;;;5000044;28;20471;-72
2021/05/29 12:47:39;;;;;;;16.20;15.60;;;;;;;;;;4991831;28;20420;-72
2021/05/29 12:50:17;;;;;;;16.03;15.50;;;;;;;;;;4992897;28;20402;-72
2021/05/29 12:52:48;;;;;;;16.13;15.53;;;;;;;;;;4993025;28;20422;-72
2021/05/29 12:55:27;;;;;;;16.53;15.93;;;;;;;;;;5005724;28;20771;-72
2021/05/29 12:57:53;;;;;;;16.73;16.13;;;;;;;;;;5011199;28;20448;-72
2021/05/29 13:09:08;;;;;;;16.80;16.20;;;;;;;;;;4992781;28;20975;-72
2021/05/29 13:11:39;;;;;;;16.23;15.60;;;;;;;;;;4993130;28;20478;-72
2021/05/29 13:14:09;;;;;;;16.50;15.90;;;;;;;;;;4993278;28;20415;-72
2021/05/29 13:16:54;;;;;;;16.40;15.70;;;;;;;;;;4993620;28;20539;-72
2021/05/29 13:19:23;;;;;;;15.93;15.33;;;;;;;;;;4993169;28;20462;-71
2021/05/29 13:21:50;;;;;;;16.73;16.13;;;;;;;;;;5001200;28;20427;-72
2021/05/29 13:24:34;;;;;;;16.60;16.00;;;;;;;;;;5012344;28;20468;-72
2021/05/29 13:27:00;;;;;;;17.30;16.70;;;;;;;;;;5011780;28;20894;-72
2021/05/29 13:29:26;;;;;;;17.20;16.60;;;;;;;;;;5011630;28;20427;-72
2021/05/29 13:31:52;;;;;;;17.07;16.37;;;;;;;;;;5010494;28;20415;-72
2021/05/29 13:34:18;;;;;;;16.93;16.30;;;;;;;;;;5007777;28;20608;-72